sensor_id;sensor_type;location;lat;lon;timestamp;P1;durP1;ratioP1;P2;durP2;ratioP2
51764;SDS011;37835;53.256;6.456;2022-09-09T00:00:14;11.70;;;8.07;;
51764;SDS011;37835;53.256;6.456;2022-09-09T00:02:44;13.60;;;8.05;;
51764;SDS011;37835;53.256;6.456;2022-09-09T00:05:24;10.23;;;7.93;;
51764;SDS011;37835;53.256;6.456;2022-09-09T00:07:58;10.05;;;8.48;;
51764;SDS011;37835;53.256;6.456;2022-09-09T00:13:22;9.13;;;8.23;;
51764;SDS011;37835;53.256;6.456;2022-09-09T00:16:10;13.90;;;9.13;;
51764;SDS011;37835;53.256;6.456;2022-09-09T00:21:18;11.52;;;8.35;;
51764;SDS011;37835;53.256;6.456;2022-09-09T00:23:51;12.13;;;8.68;;
51764;SDS011;37835;53.256;6.456;2022-09-09T00:26:27;10.70;;;9.20;;
51764;SDS011;37835;53.256;6.456;2022-09-09T00:31:35;16.58;;;9.23;;
51764;SDS011;37835;53.256;6.456;2022-09-09T00:34:21;14.73;;;9.35;;
51764;SDS011;37835;53.256;6.456;2022-09-09T00:36:50;11.35;;;9.13;;
51764;SDS011;37835;53.256;6.456;2022-09-09T00:39:34;14.05;;;9.57;;
51764;SDS011;37835;53.256;6.456;2022-09-09T00:47:52;13.70;;;10.05;;
51764;SDS011;37835;53.256;6.456;2022-09-09T00:56:12;12.93;;;10.05;;
51764;SDS011;37835;53.256;6.456;2022-09-09T00:58:43;15.07;;;10.20;;
51764;SDS011;37835;53.256;6.456;2022-09-09T01:01:44;13.80;;;9.95;;
51764;SDS011;37835;53.256;6.456;2022-09-09T01:04:12;16.38;;;9.40;;
51764;SDS011;37835;53.256;6.456;2022-09-09T01:06:41;13.35;;;10.30;;
51764;SDS011;37835;53.256;6.456;2022-09-09T01:09:13;14.40;;;10.20;;
51764;SDS011;37835;53.256;6.456;2022-09-09T01:11:59;13.70;;;10.10;;
51764;SDS011;37835;53.256;6.456;2022-09-09T01:17:03;11.52;;;9.18;;
51764;SDS011;37835;53.256;6.456;2022-09-09T01:19:37;11.68;;;10.18;;
51764;SDS011;37835;53.256;6.456;2022-09-09T01:24:46;14.80;;;10.05;;
51764;SDS011;37835;53.256;6.456;2022-09-09T01:27:37;14.23;;;9.95;;
51764;SDS011;37835;53.256;6.456;2022-09-09T01:30:08;11.63;;;9.30;;
51764;SDS011;37835;53.256;6.456;2022-09-09T01:32:41;15.13;;;9.60;;
51764;SDS011;37835;53.256;6.456;2022-09-09T01:35:18;13.65;;;9.25;;
51764;SDS011;37835;53.256;6.456;2022-09-09T01:37:56;10.40;;;9.05;;
51764;SDS011;37835;53.256;6.456;2022-09-09T01:40:22;16.60;;;10.25;;
51764;SDS011;37835;53.256;6.456;2022-09-09T01:42:48;11.00;;;9.52;;
51764;SDS011;37835;53.256;6.456;2022-09-09T01:45:14;11.95;;;9.43;;
51764;SDS011;37835;53.256;6.456;2022-09-09T01:47:40;12.18;;;9.20;;
51764;SDS011;37835;53.256;6.456;2022-09-09T01:50:07;13.07;;;9.82;;
51764;SDS011;37835;53.256;6.456;2022-09-09T01:52:36;11.65;;;8.98;;
51764;SDS011;37835;53.256;6.456;2022-09-09T01:55:02;10.70;;;9.23;;
51764;SDS011;37835;53.256;6.456;2022-09-09T01:57:30;12.52;;;9.68;;
51764;SDS011;37835;53.256;6.456;2022-09-09T02:00:21;11.25;;;8.35;;
51764;SDS011;37835;53.256;6.456;2022-09-09T02:02:49;11.60;;;8.32;;
51764;SDS011;37835;53.256;6.456;2022-09-09T02:08:11;10.75;;;8.57;;
51764;SDS011;37835;53.256;6.456;2022-09-09T02:13:31;12.38;;;8.15;;
51764;SDS011;37835;53.256;6.456;2022-09-09T02:16:13;11.32;;;7.72;;
51764;SDS011;37835;53.256;6.456;2022-09-09T02:21:27;13.35;;;7.90;;
51764;SDS011;37835;53.256;6.456;2022-09-09T02:23:55;10.68;;;7.95;;
51764;SDS011;37835;53.256;6.456;2022-09-09T02:26:24;11.38;;;8.45;;
51764;SDS011;37835;53.256;6.456;2022-09-09T02:28:51;13.18;;;8.68;;
51764;SDS011;37835;53.256;6.456;2022-09-09T02:31:20;12.20;;;9.05;;
51764;SDS011;37835;53.256;6.456;2022-09-09T02:33:54;14.07;;;8.07;;
51764;SDS011;37835;53.256;6.456;2022-09-09T02:36:23;10.10;;;7.97;;
51764;SDS011;37835;53.256;6.456;2022-09-09T02:38:50;10.23;;;8.68;;
51764;SDS011;37835;53.256;6.456;2022-09-09T02:41:24;9.95;;;8.60;;
51764;SDS011;37835;53.256;6.456;2022-09-09T02:43:53;14.07;;;9.27;;
51764;SDS011;37835;53.256;6.456;2022-09-09T02:49:00;15.40;;;10.60;;
51764;SDS011;37835;53.256;6.456;2022-09-09T02:56:59;14.32;;;10.48;;
51764;SDS011;37835;53.256;6.456;2022-09-09T02:59:30;13.55;;;10.43;;
51764;SDS011;37835;53.256;6.456;2022-09-09T03:01:56;14.90;;;10.30;;
51764;SDS011;37835;53.256;6.456;2022-09-09T03:04:22;14.50;;;10.65;;
51764;SDS011;37835;53.256;6.456;2022-09-09T03:06:49;12.38;;;10.63;;
51764;SDS011;37835;53.256;6.456;2022-09-09T03:09:14;14.00;;;10.68;;
51764;SDS011;37835;53.256;6.456;2022-09-09T03:11:40;17.10;;;11.60;;
51764;SDS011;37835;53.256;6.456;2022-09-09T03:14:06;15.70;;;11.43;;
51764;SDS011;37835;53.256;6.456;2022-09-09T03:16:31;16.92;;;11.15;;
51764;SDS011;37835;53.256;6.456;2022-09-09T03:18:59;17.25;;;10.68;;
51764;SDS011;37835;53.256;6.456;2022-09-09T03:21:25;14.27;;;11.02;;
51764;SDS011;37835;53.256;6.456;2022-09-09T03:23:51;19.55;;;10.65;;
51764;SDS011;37835;53.256;6.456;2022-09-09T03:26:16;13.45;;;10.32;;
51764;SDS011;37835;53.256;6.456;2022-09-09T03:28:42;13.25;;;10.55;;
51764;SDS011;37835;53.256;6.456;2022-09-09T03:31:08;13.73;;;10.35;;
51764;SDS011;37835;53.256;6.456;2022-09-09T03:33:35;15.63;;;10.73;;
51764;SDS011;37835;53.256;6.456;2022-09-09T03:36:02;14.50;;;10.80;;
51764;SDS011;37835;53.256;6.456;2022-09-09T03:38:28;13.60;;;10.50;;
51764;SDS011;37835;53.256;6.456;2022-09-09T03:40:54;16.38;;;10.38;;
51764;SDS011;37835;53.256;6.456;2022-09-09T03:43:22;15.75;;;10.23;;
51764;SDS011;37835;53.256;6.456;2022-09-09T03:45:49;14.85;;;10.10;;
51764;SDS011;37835;53.256;6.456;2022-09-09T03:48:15;12.95;;;10.15;;
51764;SDS011;37835;53.256;6.456;2022-09-09T03:50:48;15.75;;;10.02;;
51764;SDS011;37835;53.256;6.456;2022-09-09T03:53:16;13.38;;;8.90;;
51764;SDS011;37835;53.256;6.456;2022-09-09T03:55:46;14.43;;;8.63;;
51764;SDS011;37835;53.256;6.456;2022-09-09T03:58:13;12.27;;;8.43;;
51764;SDS011;37835;53.256;6.456;2022-09-09T04:00:40;13.77;;;8.32;;
51764;SDS011;37835;53.256;6.456;2022-09-09T04:03:10;15.35;;;7.93;;
51764;SDS011;37835;53.256;6.456;2022-09-09T04:05:36;12.15;;;7.75;;
51764;SDS011;37835;53.256;6.456;2022-09-09T04:08:07;8.30;;;6.88;;
51764;SDS011;37835;53.256;6.456;2022-09-09T04:10:33;8.98;;;6.88;;
51764;SDS011;37835;53.256;6.456;2022-09-09T04:13:01;8.63;;;5.95;;
51764;SDS011;37835;53.256;6.456;2022-09-09T04:15:27;10.48;;;6.25;;
51764;SDS011;37835;53.256;6.456;2022-09-09T04:17:53;8.77;;;6.50;;
51764;SDS011;37835;53.256;6.456;2022-09-09T04:20:18;7.18;;;6.07;;
51764;SDS011;37835;53.256;6.456;2022-09-09T04:22:44;9.88;;;6.60;;
51764;SDS011;37835;53.256;6.456;2022-09-09T04:25:10;10.05;;;6.40;;
51764;SDS011;37835;53.256;6.456;2022-09-09T04:27:35;8.18;;;6.53;;
51764;SDS011;37835;53.256;6.456;2022-09-09T04:30:01;10.95;;;6.43;;
51764;SDS011;37835;53.256;6.456;2022-09-09T04:32:27;10.95;;;6.30;;
51764;SDS011;37835;53.256;6.456;2022-09-09T04:34:52;10.48;;;6.82;;
51764;SDS011;37835;53.256;6.456;2022-09-09T04:37:18;8.65;;;6.13;;
51764;SDS011;37835;53.256;6.456;2022-09-09T04:39:44;8.98;;;6.63;;
51764;SDS011;37835;53.256;6.456;2022-09-09T04:42:10;9.27;;;6.63;;
51764;SDS011;37835;53.256;6.456;2022-09-09T04:44:36;10.02;;;6.43;;
51764;SDS011;37835;53.256;6.456;2022-09-09T04:47:01;9.20;;;6.45;;
51764;SDS011;37835;53.256;6.456;2022-09-09T04:49:27;8.80;;;6.13;;
51764;SDS011;37835;53.256;6.456;2022-09-09T04:51:52;9.52;;;6.25;;
51764;SDS011;37835;53.256;6.456;2022-09-09T04:54:18;6.88;;;6.15;;
51764;SDS011;37835;53.256;6.456;2022-09-09T04:56:44;10.75;;;6.38;;
51764;SDS011;37835;53.256;6.456;2022-09-09T04:59:09;8.05;;;6.00;;
51764;SDS011;37835;53.256;6.456;2022-09-09T05:01:35;8.93;;;6.30;;
51764;SDS011;37835;53.256;6.456;2022-09-09T05:04:01;11.20;;;6.13;;
51764;SDS011;37835;53.256;6.456;2022-09-09T05:06:27;9.70;;;6.18;;
51764;SDS011;37835;53.256;6.456;2022-09-09T05:08:56;12.73;;;6.85;;
51764;SDS011;37835;53.256;6.456;2022-09-09T05:11:24;10.48;;;6.50;;
51764;SDS011;37835;53.256;6.456;2022-09-09T05:13:52;8.52;;;6.32;;
51764;SDS011;37835;53.256;6.456;2022-09-09T05:16:18;7.30;;;6.03;;
51764;SDS011;37835;53.256;6.456;2022-09-09T05:18:44;9.90;;;6.10;;
51764;SDS011;37835;53.256;6.456;2022-09-09T05:21:14;12.38;;;6.68;;
51764;SDS011;37835;53.256;6.456;2022-09-09T05:23:41;8.65;;;6.38;;
51764;SDS011;37835;53.256;6.456;2022-09-09T05:26:07;9.30;;;6.47;;
51764;SDS011;37835;53.256;6.456;2022-09-09T05:28:36;13.30;;;7.20;;
51764;SDS011;37835;53.256;6.456;2022-09-09T05:31:03;11.77;;;6.72;;
51764;SDS011;37835;53.256;6.456;2022-09-09T05:33:30;17.80;;;8.35;;
51764;SDS011;37835;53.256;6.456;2022-09-09T05:36:00;9.63;;;7.00;;
51764;SDS011;37835;53.256;6.456;2022-09-09T05:38:31;10.73;;;7.60;;
51764;SDS011;37835;53.256;6.456;2022-09-09T05:40:58;12.20;;;7.35;;
51764;SDS011;37835;53.256;6.456;2022-09-09T05:43:24;11.48;;;7.35;;
51764;SDS011;37835;53.256;6.456;2022-09-09T05:46:01;11.13;;;8.05;;
51764;SDS011;37835;53.256;6.456;2022-09-09T05:48:33;12.15;;;7.82;;
51764;SDS011;37835;53.256;6.456;2022-09-09T05:51:01;10.50;;;7.70;;
51764;SDS011;37835;53.256;6.456;2022-09-09T05:53:27;12.05;;;8.45;;
51764;SDS011;37835;53.256;6.456;2022-09-09T05:58:26;10.07;;;8.32;;
51764;SDS011;37835;53.256;6.456;2022-09-09T06:00:52;11.20;;;8.18;;
51764;SDS011;37835;53.256;6.456;2022-09-09T06:03:19;11.68;;;8.50;;
51764;SDS011;37835;53.256;6.456;2022-09-09T06:05:56;11.40;;;8.65;;
51764;SDS011;37835;53.256;6.456;2022-09-09T06:08:22;16.30;;;9.85;;
51764;SDS011;37835;53.256;6.456;2022-09-09T06:10:48;13.10;;;9.18;;
51764;SDS011;37835;53.256;6.456;2022-09-09T06:13:13;14.93;;;10.00;;
51764;SDS011;37835;53.256;6.456;2022-09-09T06:15:39;12.02;;;9.70;;
51764;SDS011;37835;53.256;6.456;2022-09-09T06:18:14;15.50;;;9.55;;
51764;SDS011;37835;53.256;6.456;2022-09-09T06:20:42;13.27;;;9.52;;
51764;SDS011;37835;53.256;6.456;2022-09-09T06:23:08;15.93;;;9.18;;
51764;SDS011;37835;53.256;6.456;2022-09-09T06:25:33;15.05;;;9.73;;
51764;SDS011;37835;53.256;6.456;2022-09-09T06:27:59;16.10;;;9.98;;
51764;SDS011;37835;53.256;6.456;2022-09-09T06:30:25;12.32;;;9.50;;
51764;SDS011;37835;53.256;6.456;2022-09-09T06:32:50;13.50;;;9.90;;
51764;SDS011;37835;53.256;6.456;2022-09-09T06:35:16;11.52;;;9.77;;
51764;SDS011;37835;53.256;6.456;2022-09-09T06:37:44;11.43;;;9.50;;
51764;SDS011;37835;53.256;6.456;2022-09-09T06:40:13;13.77;;;10.35;;
51764;SDS011;37835;53.256;6.456;2022-09-09T06:42:40;15.18;;;9.60;;
51764;SDS011;37835;53.256;6.456;2022-09-09T06:45:06;14.55;;;9.48;;
51764;SDS011;37835;53.256;6.456;2022-09-09T06:47:32;11.68;;;9.27;;
51764;SDS011;37835;53.256;6.456;2022-09-09T06:49:58;14.25;;;9.93;;
51764;SDS011;37835;53.256;6.456;2022-09-09T06:52:24;12.93;;;9.23;;
51764;SDS011;37835;53.256;6.456;2022-09-09T06:54:49;12.43;;;9.25;;
51764;SDS011;37835;53.256;6.456;2022-09-09T06:57:15;11.07;;;9.00;;
51764;SDS011;37835;53.256;6.456;2022-09-09T06:59:40;12.82;;;8.98;;
51764;SDS011;37835;53.256;6.456;2022-09-09T07:02:07;11.25;;;9.32;;
51764;SDS011;37835;53.256;6.456;2022-09-09T07:04:33;9.80;;;8.60;;
51764;SDS011;37835;53.256;6.456;2022-09-09T07:06:58;11.02;;;8.32;;
51764;SDS011;37835;53.256;6.456;2022-09-09T07:09:24;12.43;;;8.20;;
51764;SDS011;37835;53.256;6.456;2022-09-09T07:11:50;11.45;;;8.40;;
51764;SDS011;37835;53.256;6.456;2022-09-09T07:14:17;12.18;;;8.55;;
51764;SDS011;37835;53.256;6.456;2022-09-09T07:16:44;11.32;;;9.40;;
51764;SDS011;37835;53.256;6.456;2022-09-09T07:19:11;13.80;;;8.70;;
51764;SDS011;37835;53.256;6.456;2022-09-09T07:21:37;9.15;;;7.95;;
51764;SDS011;37835;53.256;6.456;2022-09-09T07:24:05;11.07;;;8.40;;
51764;SDS011;37835;53.256;6.456;2022-09-09T07:26:32;12.23;;;7.78;;
51764;SDS011;37835;53.256;6.456;2022-09-09T07:28:58;8.90;;;7.88;;
51764;SDS011;37835;53.256;6.456;2022-09-09T07:31:25;12.70;;;8.73;;
51764;SDS011;37835;53.256;6.456;2022-09-09T07:33:53;14.77;;;8.48;;
51764;SDS011;37835;53.256;6.456;2022-09-09T07:36:20;11.50;;;8.38;;
51764;SDS011;37835;53.256;6.456;2022-09-09T07:38:48;12.90;;;8.13;;
51764;SDS011;37835;53.256;6.456;2022-09-09T07:41:30;12.30;;;7.63;;
51764;SDS011;37835;53.256;6.456;2022-09-09T07:43:59;12.75;;;8.10;;
51764;SDS011;37835;53.256;6.456;2022-09-09T07:46:28;11.52;;;7.35;;
51764;SDS011;37835;53.256;6.456;2022-09-09T07:48:55;12.50;;;7.88;;
51764;SDS011;37835;53.256;6.456;2022-09-09T07:51:29;8.68;;;6.75;;
51764;SDS011;37835;53.256;6.456;2022-09-09T07:53:57;12.80;;;7.05;;
51764;SDS011;37835;53.256;6.456;2022-09-09T07:56:25;7.82;;;6.95;;
51764;SDS011;37835;53.256;6.456;2022-09-09T07:58:52;10.52;;;7.00;;
51764;SDS011;37835;53.256;6.456;2022-09-09T08:01:38;9.73;;;7.43;;
51764;SDS011;37835;53.256;6.456;2022-09-09T08:04:15;7.78;;;6.40;;
51764;SDS011;37835;53.256;6.456;2022-09-09T08:06:53;7.28;;;6.32;;
51764;SDS011;37835;53.256;6.456;2022-09-09T08:09:23;9.45;;;6.80;;
51764;SDS011;37835;53.256;6.456;2022-09-09T08:11:51;6.95;;;6.22;;
51764;SDS011;37835;53.256;6.456;2022-09-09T08:14:17;8.95;;;6.57;;
51764;SDS011;37835;53.256;6.456;2022-09-09T08:16:44;9.82;;;6.35;;
51764;SDS011;37835;53.256;6.456;2022-09-09T08:19:12;9.32;;;6.68;;
51764;SDS011;37835;53.256;6.456;2022-09-09T08:21:40;8.82;;;6.32;;
51764;SDS011;37835;53.256;6.456;2022-09-09T08:24:06;7.60;;;5.75;;
51764;SDS011;37835;53.256;6.456;2022-09-09T08:26:34;10.10;;;6.32;;
51764;SDS011;37835;53.256;6.456;2022-09-09T08:29:01;9.63;;;5.90;;
51764;SDS011;37835;53.256;6.456;2022-09-09T08:31:30;8.50;;;5.90;;
51764;SDS011;37835;53.256;6.456;2022-09-09T08:34:00;10.02;;;6.47;;
51764;SDS011;37835;53.256;6.456;2022-09-09T08:36:30;7.57;;;5.60;;
51764;SDS011;37835;53.256;6.456;2022-09-09T08:39:02;7.88;;;5.60;;
51764;SDS011;37835;53.256;6.456;2022-09-09T08:52:37;8.30;;;5.15;;
51764;SDS011;37835;53.256;6.456;2022-09-09T08:58:17;5.95;;;5.35;;
51764;SDS011;37835;53.256;6.456;2022-09-09T09:00:52;9.18;;;5.18;;
51764;SDS011;37835;53.256;6.456;2022-09-09T09:08:58;9.38;;;5.38;;
51764;SDS011;37835;53.256;6.456;2022-09-09T09:11:25;7.13;;;5.05;;
51764;SDS011;37835;53.256;6.456;2022-09-09T09:16:31;7.93;;;4.57;;
51764;SDS011;37835;53.256;6.456;2022-09-09T09:19:01;8.65;;;4.60;;
51764;SDS011;37835;53.256;6.456;2022-09-09T09:21:34;7.55;;;4.65;;
51764;SDS011;37835;53.256;6.456;2022-09-09T09:30:05;8.15;;;4.65;;
51764;SDS011;37835;53.256;6.456;2022-09-09T09:32:39;11.85;;;5.05;;
51764;SDS011;37835;53.256;6.456;2022-09-09T09:35:12;9.07;;;4.40;;
51764;SDS011;37835;53.256;6.456;2022-09-09T09:37:39;11.95;;;4.32;;
51764;SDS011;37835;53.256;6.456;2022-09-09T09:40:08;10.82;;;4.22;;
51764;SDS011;37835;53.256;6.456;2022-09-09T09:42:34;10.85;;;4.32;;
51764;SDS011;37835;53.256;6.456;2022-09-09T09:45:35;8.27;;;4.70;;
51764;SDS011;37835;53.256;6.456;2022-09-09T09:48:12;8.85;;;4.10;;
51764;SDS011;37835;53.256;6.456;2022-09-09T09:53:37;7.72;;;2.88;;
51764;SDS011;37835;53.256;6.456;2022-09-09T09:56:05;5.90;;;2.72;;
51764;SDS011;37835;53.256;6.456;2022-09-09T09:58:33;9.40;;;3.15;;
51764;SDS011;37835;53.256;6.456;2022-09-09T10:04:38;11.48;;;3.30;;
51764;SDS011;37835;53.256;6.456;2022-09-09T10:06:41;8.25;;;2.80;;
51764;SDS011;37835;53.256;6.456;2022-09-09T10:11:57;14.43;;;3.15;;
51764;SDS011;37835;53.256;6.456;2022-09-09T10:20:52;7.20;;;2.50;;
51764;SDS011;37835;53.256;6.456;2022-09-09T10:43:07;13.13;;;2.63;;
51764;SDS011;37835;53.256;6.456;2022-09-09T10:51:00;8.43;;;2.22;;
51764;SDS011;37835;53.256;6.456;2022-09-09T10:56:36;4.90;;;1.33;;
51764;SDS011;37835;53.256;6.456;2022-09-09T11:01:47;6.28;;;1.70;;
51764;SDS011;37835;53.256;6.456;2022-09-09T11:04:22;6.63;;;1.38;;
51764;SDS011;37835;53.256;6.456;2022-09-09T11:06:54;6.40;;;1.38;;
51764;SDS011;37835;53.256;6.456;2022-09-09T11:09:22;7.53;;;1.42;;
51764;SDS011;37835;53.256;6.456;2022-09-09T11:11:52;5.68;;;1.42;;
51764;SDS011;37835;53.256;6.456;2022-09-09T11:14:26;6.82;;;1.55;;
51764;SDS011;37835;53.256;6.456;2022-09-09T11:17:04;6.35;;;1.30;;
51764;SDS011;37835;53.256;6.456;2022-09-09T11:24:47;7.90;;;1.73;;
51764;SDS011;37835;53.256;6.456;2022-09-09T11:27:21;7.35;;;1.92;;
51764;SDS011;37835;53.256;6.456;2022-09-09T11:33:28;6.30;;;1.58;;
51764;SDS011;37835;53.256;6.456;2022-09-09T11:38:21;6.53;;;1.60;;
51764;SDS011;37835;53.256;6.456;2022-09-09T11:40:58;5.20;;;1.55;;
51764;SDS011;37835;53.256;6.456;2022-09-09T11:43:29;8.80;;;2.28;;
51764;SDS011;37835;53.256;6.456;2022-09-09T11:45:58;6.72;;;1.70;;
51764;SDS011;37835;53.256;6.456;2022-09-09T11:48:43;5.82;;;1.30;;
51764;SDS011;37835;53.256;6.456;2022-09-09T11:51:29;6.38;;;1.27;;
51764;SDS011;37835;53.256;6.456;2022-09-09T11:53:58;5.25;;;1.65;;
51764;SDS011;37835;53.256;6.456;2022-09-09T11:59:03;8.32;;;1.30;;
51764;SDS011;37835;53.256;6.456;2022-09-09T12:12:33;8.75;;;1.50;;
51764;SDS011;37835;53.256;6.456;2022-09-09T12:17:36;5.63;;;1.20;;
51764;SDS011;37835;53.256;6.456;2022-09-09T12:20:12;3.65;;;1.00;;
51764;SDS011;37835;53.256;6.456;2022-09-09T12:33:37;6.30;;;1.20;;
51764;SDS011;37835;53.256;6.456;2022-09-09T12:36:10;5.35;;;0.95;;
51764;SDS011;37835;53.256;6.456;2022-09-09T12:38:39;6.32;;;1.25;;
51764;SDS011;37835;53.256;6.456;2022-09-09T12:41:17;10.25;;;1.35;;
51764;SDS011;37835;53.256;6.456;2022-09-09T12:43:45;4.35;;;1.02;;
51764;SDS011;37835;53.256;6.456;2022-09-09T12:46:14;4.38;;;1.00;;
51764;SDS011;37835;53.256;6.456;2022-09-09T12:49:03;4.40;;;0.88;;
51764;SDS011;37835;53.256;6.456;2022-09-09T12:51:32;5.47;;;1.30;;
51764;SDS011;37835;53.256;6.456;2022-09-09T12:53:59;6.15;;;1.45;;
51764;SDS011;37835;53.256;6.456;2022-09-09T12:56:26;5.43;;;1.20;;
51764;SDS011;37835;53.256;6.456;2022-09-09T12:58:55;5.45;;;1.33;;
51764;SDS011;37835;53.256;6.456;2022-09-09T13:01:31;4.85;;;0.98;;
51764;SDS011;37835;53.256;6.456;2022-09-09T13:03:58;4.68;;;0.80;;
51764;SDS011;37835;53.256;6.456;2022-09-09T13:06:25;6.47;;;1.15;;
51764;SDS011;37835;53.256;6.456;2022-09-09T13:08:53;4.13;;;1.00;;
51764;SDS011;37835;53.256;6.456;2022-09-09T13:11:22;3.20;;;1.00;;
51764;SDS011;37835;53.256;6.456;2022-09-09T13:14:13;2.40;;;0.88;;
51764;SDS011;37835;53.256;6.456;2022-09-09T13:16:53;3.72;;;1.38;;
51764;SDS011;37835;53.256;6.456;2022-09-09T13:19:23;4.63;;;0.90;;
51764;SDS011;37835;53.256;6.456;2022-09-09T13:21:53;3.15;;;1.10;;
51764;SDS011;37835;53.256;6.456;2022-09-09T13:24:32;3.47;;;0.80;;
51764;SDS011;37835;53.256;6.456;2022-09-09T13:27:03;4.15;;;1.20;;
51764;SDS011;37835;53.256;6.456;2022-09-09T13:29:52;5.05;;;1.17;;
51764;SDS011;37835;53.256;6.456;2022-09-09T13:32:20;12.45;;;1.70;;
51764;SDS011;37835;53.256;6.456;2022-09-09T13:34:59;4.15;;;0.93;;
51764;SDS011;37835;53.256;6.456;2022-09-09T13:37:34;7.07;;;1.50;;
51764;SDS011;37835;53.256;6.456;2022-09-09T13:40:02;5.03;;;0.82;;
51764;SDS011;37835;53.256;6.456;2022-09-09T13:42:30;4.07;;;0.80;;
51764;SDS011;37835;53.256;6.456;2022-09-09T13:45:00;5.25;;;0.80;;
51764;SDS011;37835;53.256;6.456;2022-09-09T13:47:27;5.40;;;1.17;;
51764;SDS011;37835;53.256;6.456;2022-09-09T13:49:56;3.67;;;0.93;;
51764;SDS011;37835;53.256;6.456;2022-09-09T13:52:22;3.20;;;0.98;;
51764;SDS011;37835;53.256;6.456;2022-09-09T13:54:49;5.05;;;0.90;;
51764;SDS011;37835;53.256;6.456;2022-09-09T13:57:17;4.15;;;1.02;;
51764;SDS011;37835;53.256;6.456;2022-09-09T13:59:44;3.30;;;0.93;;
51764;SDS011;37835;53.256;6.456;2022-09-09T14:02:11;5.43;;;1.35;;
51764;SDS011;37835;53.256;6.456;2022-09-09T14:04:36;4.90;;;1.05;;
51764;SDS011;37835;53.256;6.456;2022-09-09T14:07:02;7.47;;;0.93;;
51764;SDS011;37835;53.256;6.456;2022-09-09T14:09:28;9.95;;;1.52;;
51764;SDS011;37835;53.256;6.456;2022-09-09T14:11:54;4.82;;;1.17;;
51764;SDS011;37835;53.256;6.456;2022-09-09T14:14:22;4.13;;;0.90;;
51764;SDS011;37835;53.256;6.456;2022-09-09T14:16:48;3.38;;;0.70;;
51764;SDS011;37835;53.256;6.456;2022-09-09T14:19:13;7.32;;;0.80;;
51764;SDS011;37835;53.256;6.456;2022-09-09T14:21:39;4.82;;;0.90;;
51764;SDS011;37835;53.256;6.456;2022-09-09T14:24:05;4.18;;;1.00;;
51764;SDS011;37835;53.256;6.456;2022-09-09T14:26:31;4.60;;;1.05;;
51764;SDS011;37835;53.256;6.456;2022-09-09T14:28:57;5.22;;;1.10;;
51764;SDS011;37835;53.256;6.456;2022-09-09T14:31:23;5.18;;;1.50;;
51764;SDS011;37835;53.256;6.456;2022-09-09T14:33:49;3.78;;;1.00;;
51764;SDS011;37835;53.256;6.456;2022-09-09T14:36:16;3.95;;;1.00;;
51764;SDS011;37835;53.256;6.456;2022-09-09T14:38:42;4.55;;;1.02;;
51764;SDS011;37835;53.256;6.456;2022-09-09T14:41:11;7.32;;;1.52;;
51764;SDS011;37835;53.256;6.456;2022-09-09T14:43:41;5.32;;;0.70;;
51764;SDS011;37835;53.256;6.456;2022-09-09T14:46:08;2.85;;;0.70;;
51764;SDS011;37835;53.256;6.456;2022-09-09T14:48:35;2.90;;;0.50;;
51764;SDS011;37835;53.256;6.456;2022-09-09T14:51:05;4.00;;;1.00;;
51764;SDS011;37835;53.256;6.456;2022-09-09T14:53:34;4.00;;;1.17;;
51764;SDS011;37835;53.256;6.456;2022-09-09T14:56:04;2.47;;;0.98;;
51764;SDS011;37835;53.256;6.456;2022-09-09T14:58:31;2.78;;;0.90;;
51764;SDS011;37835;53.256;6.456;2022-09-09T15:01:03;4.85;;;1.00;;
51764;SDS011;37835;53.256;6.456;2022-09-09T15:03:30;3.53;;;1.05;;
51764;SDS011;37835;53.256;6.456;2022-09-09T15:05:55;2.42;;;0.70;;
51764;SDS011;37835;53.256;6.456;2022-09-09T15:08:23;2.85;;;0.80;;
51764;SDS011;37835;53.256;6.456;2022-09-09T15:10:49;2.50;;;0.70;;
51764;SDS011;37835;53.256;6.456;2022-09-09T15:13:15;8.13;;;1.00;;
51764;SDS011;37835;53.256;6.456;2022-09-09T15:15:45;4.75;;;1.00;;
51764;SDS011;37835;53.256;6.456;2022-09-09T15:18:10;5.18;;;1.17;;
51764;SDS011;37835;53.256;6.456;2022-09-09T15:20:37;2.60;;;0.70;;
51764;SDS011;37835;53.256;6.456;2022-09-09T15:23:03;1.92;;;0.57;;
51764;SDS011;37835;53.256;6.456;2022-09-09T15:25:29;3.28;;;0.80;;
51764;SDS011;37835;53.256;6.456;2022-09-09T15:27:54;1.83;;;0.60;;
51764;SDS011;37835;53.256;6.456;2022-09-09T15:30:21;2.40;;;0.70;;
51764;SDS011;37835;53.256;6.456;2022-09-09T15:32:46;4.22;;;0.75;;
51764;SDS011;37835;53.256;6.456;2022-09-09T15:35:12;3.47;;;0.70;;
51764;SDS011;37835;53.256;6.456;2022-09-09T15:37:37;3.60;;;1.00;;
51764;SDS011;37835;53.256;6.456;2022-09-09T15:40:03;2.72;;;0.88;;
51764;SDS011;37835;53.256;6.456;2022-09-09T15:42:29;1.08;;;0.60;;
51764;SDS011;37835;53.256;6.456;2022-09-09T15:44:55;1.52;;;0.60;;
51764;SDS011;37835;53.256;6.456;2022-09-09T15:47:20;3.92;;;0.60;;
51764;SDS011;37835;53.256;6.456;2022-09-09T15:49:46;2.42;;;0.60;;
51764;SDS011;37835;53.256;6.456;2022-09-09T15:52:12;2.08;;;0.63;;
51764;SDS011;37835;53.256;6.456;2022-09-09T15:54:37;6.78;;;1.13;;
51764;SDS011;37835;53.256;6.456;2022-09-09T15:57:04;2.40;;;0.60;;
51764;SDS011;37835;53.256;6.456;2022-09-09T15:59:31;1.77;;;0.40;;
51764;SDS011;37835;53.256;6.456;2022-09-09T16:01:58;1.50;;;0.43;;
51764;SDS011;37835;53.256;6.456;2022-09-09T16:04:25;3.72;;;0.40;;
51764;SDS011;37835;53.256;6.456;2022-09-09T16:06:51;1.65;;;0.40;;
51764;SDS011;37835;53.256;6.456;2022-09-09T16:09:18;1.98;;;0.52;;
51764;SDS011;37835;53.256;6.456;2022-09-09T16:11:44;2.40;;;0.68;;
51764;SDS011;37835;53.256;6.456;2022-09-09T16:14:11;1.55;;;0.77;;
51764;SDS011;37835;53.256;6.456;2022-09-09T16:16:38;2.85;;;0.70;;
51764;SDS011;37835;53.256;6.456;2022-09-09T16:19:05;2.20;;;0.52;;
51764;SDS011;37835;53.256;6.456;2022-09-09T16:21:36;1.90;;;0.60;;
51764;SDS011;37835;53.256;6.456;2022-09-09T16:24:04;1.17;;;0.55;;
51764;SDS011;37835;53.256;6.456;2022-09-09T16:26:32;3.75;;;1.20;;
51764;SDS011;37835;53.256;6.456;2022-09-09T16:28:59;2.75;;;0.98;;
51764;SDS011;37835;53.256;6.456;2022-09-09T16:31:26;3.00;;;0.80;;
51764;SDS011;37835;53.256;6.456;2022-09-09T16:33:53;4.15;;;1.10;;
51764;SDS011;37835;53.256;6.456;2022-09-09T16:36:20;2.28;;;1.00;;
51764;SDS011;37835;53.256;6.456;2022-09-09T16:38:57;5.70;;;1.13;;
51764;SDS011;37835;53.256;6.456;2022-09-09T16:41:25;2.78;;;0.93;;
51764;SDS011;37835;53.256;6.456;2022-09-09T16:43:54;4.50;;;1.00;;
51764;SDS011;37835;53.256;6.456;2022-09-09T16:46:23;5.07;;;0.90;;
51764;SDS011;37835;53.256;6.456;2022-09-09T16:48:49;3.40;;;0.80;;
51764;SDS011;37835;53.256;6.456;2022-09-09T16:51:20;4.38;;;1.05;;
51764;SDS011;37835;53.256;6.456;2022-09-09T16:53:50;2.58;;;0.80;;
51764;SDS011;37835;53.256;6.456;2022-09-09T16:56:21;2.35;;;0.80;;
51764;SDS011;37835;53.256;6.456;2022-09-09T16:58:53;1.65;;;0.80;;
51764;SDS011;37835;53.256;6.456;2022-09-09T17:01:21;3.28;;;1.30;;
51764;SDS011;37835;53.256;6.456;2022-09-09T17:03:57;3.60;;;1.05;;
51764;SDS011;37835;53.256;6.456;2022-09-09T17:06:27;2.20;;;0.80;;
51764;SDS011;37835;53.256;6.456;2022-09-09T17:08:55;1.20;;;0.52;;
51764;SDS011;37835;53.256;6.456;2022-09-09T17:13:52;2.05;;;0.90;;
51764;SDS011;37835;53.256;6.456;2022-09-09T17:16:20;2.08;;;0.80;;
51764;SDS011;37835;53.256;6.456;2022-09-09T17:18:50;3.45;;;0.80;;
51764;SDS011;37835;53.256;6.456;2022-09-09T17:21:18;1.08;;;0.52;;
51764;SDS011;37835;53.256;6.456;2022-09-09T17:23:45;3.97;;;0.90;;
51764;SDS011;37835;53.256;6.456;2022-09-09T17:26:13;4.55;;;0.85;;
51764;SDS011;37835;53.256;6.456;2022-09-09T17:28:40;2.30;;;0.68;;
51764;SDS011;37835;53.256;6.456;2022-09-09T17:31:07;2.47;;;0.70;;